Weather History for Bay City, TX

Change the Weather History Date:

Tuesday, May 13, 2014

  Actual Average (KLBX) Record (KLBX)
Temperature  
Mean Temperature 72 °F -  
Max Temperature 77 °F 82 °F 91 °F (2011)
Min Temperature 66 °F 66 °F 54 °F (2006)
Cooling Degree Days 6    
Growing Degree Days 22 (Base 50)    
Moisture  
Dew Point 67 °F    
Average Humidity 87    
Maximum Humidity 98    
Minimum Humidity 78    
Precipitation  
Precipitation 1.28 in - - ()
Sea Level Pressure  
Sea Level Pressure 30.00 in    
Wind  
Wind Speed 12 mph (NNE)    
Max Wind Speed 24 mph    
Max Gust Speed 32 mph    
Visibility 9 miles    
Events Rain    
Averages and records for this station are not official NWS values.
T = Trace of Precipitation, MM = Missing Value Source: NWS Daily Summary

Daily Weather History Graph

Daily Weather History Graph

Search for Another Location

Airport:

Trip Planner

Search our weather history database for the weather conditions in past years. The results will help you decide how hot, cold, wet, or windy it might be!

Date:

Astronomy

May. 13, 2014 Rise Set
Actual Time 6:33 AM CDT 8:06 PM CDT
Civil Twilight 6:07 AM CDT 8:32 PM CDT
Nautical Twilight 5:36 AM CDT 9:03 PM CDT
Astronomical Twilight 5:04 AM CDT 9:35 PM CDT
Moon 7:14 PM CDT (5/13) 5:42 AM CDT (5/13)
Length of Visible Light 14h 25m
Length of Day
13h 33m
Waxing Gibbous, 99% of the Moon is Illuminated
May 13
Waxing Gibbous
May 14
Full
May 21
Last Quarter
May 28
New
Jun 5
First Quarter

Hourly Weather History & Observations

Time (CDT) Temp. Dew Point Humidity Pressure Visibility Wind Dir Wind Speed Gust Speed Precip Events Conditions
12:15 AM 77.7 °F 74.8 °F 91% 29.91 in 7.0 mi SSE 15.0 mph 20.7 mph N/A   Overcast
12:35 AM 77.5 °F 74.8 °F 91% 29.90 in 7.0 mi SSE 12.7 mph 19.6 mph N/A Rain Light Rain
12:55 AM 76.8 °F 74.8 °F 94% 29.91 in 7.0 mi SSE 9.2 mph - 0.04 in Rain Light Rain
1:15 AM 76.8 °F 75.0 °F 94% 29.90 in 7.0 mi SSE 8.1 mph - N/A   Overcast
1:35 AM 76.8 °F 75.0 °F 94% 29.90 in 7.0 mi SE 5.8 mph 9.2 mph N/A   Overcast
1:55 AM 77.0 °F 73.4 °F 89% 29.90 in 7.0 mi SE 5.8 mph - N/A   Overcast
2:15 AM 77.2 °F 74.8 °F 92% 29.91 in 7.0 mi Calm Calm - N/A   Overcast
2:35 AM 77.2 °F 74.7 °F 92% 29.92 in 5.0 mi Calm Calm - N/A Rain Light Rain
2:55 AM 77.0 °F 74.5 °F 92% 29.91 in 4.0 mi ESE 4.6 mph - 0.04 in Rain Light Rain
3:15 AM 76.5 °F 74.1 °F 92% 29.91 in 5.0 mi SSE 6.9 mph - N/A Rain Light Rain
3:35 AM 75.4 °F 72.0 °F 89% 29.91 in 5.0 mi Calm Calm - N/A   Overcast
3:55 AM 75.0 °F 72.5 °F 92% 29.90 in 2.5 mi SSE 9.2 mph - 0.21 in Rain Heavy Rain
4:15 AM 74.8 °F 72.9 °F 94% 29.94 in 7.0 mi NW 23.0 mph 32.2 mph 0.07 in Rain Rain
4:35 AM 69.3 °F 67.5 °F 94% 29.95 in 1.5 mi North 24.2 mph 29.9 mph 0.56 in Rain Light Rain
4:55 AM 68.2 °F 67.5 °F 98% 29.98 in 3.0 mi North 16.1 mph 21.9 mph 0.80 in Rain Heavy Rain
5:15 AM 68.2 °F 67.5 °F 98% 29.99 in 5.0 mi North 20.7 mph 28.8 mph 0.08 in Rain Rain
5:35 AM 68.4 °F 67.5 °F 97% 30.00 in 10.0 mi NNE 13.8 mph 23.0 mph 0.11 in Rain Light Rain
5:55 AM 68.2 °F 67.3 °F 97% 30.00 in 10.0 mi NNE 15.0 mph 18.4 mph 0.11 in Rain Light Rain
6:15 AM 68.2 °F 67.3 °F 97% 30.00 in 10.0 mi NNE 12.7 mph 27.6 mph 0.02 in Rain Rain
6:35 AM 68.0 °F 66.9 °F 96% 29.99 in 10.0 mi NE 17.3 mph 24.2 mph 0.05 in Rain Rain
6:55 AM 67.8 °F 66.6 °F 96% 30.01 in 10.0 mi NNE 13.8 mph 23.0 mph 0.08 in Rain Rain
7:55 AM 68.0 °F 64.4 °F 88% 30.01 in 10.0 mi ENE 18.4 mph 21.9 mph N/A Rain Light Rain
8:15 AM 68.0 °F 66.4 °F 95% 29.98 in 10.0 mi ENE 18.4 mph 23.0 mph N/A Rain Light Rain
8:35 AM 68.0 °F 66.2 °F 94% 29.96 in 10.0 mi ENE 19.6 mph 28.8 mph N/A Rain Light Rain
8:55 AM 68.0 °F 65.8 °F 93% 29.97 in 10.0 mi ENE 16.1 mph 21.9 mph N/A   Clear
9:15 AM 68.4 °F 65.5 °F 90% 29.98 in 10.0 mi ENE 12.7 mph 23.0 mph N/A   Scattered Clouds
10:55 AM 70.3 °F 66.9 °F 89% 30.05 in 10.0 mi NNW 6.9 mph - N/A   Light Drizzle
11:35 AM 71.1 °F 67.1 °F 87% 30.06 in 10.0 mi NNW 5.8 mph - N/A   Clear
12:15 PM 72.1 °F 66.7 °F 83% 30.05 in 10.0 mi NNW 8.1 mph - N/A   Clear
12:35 PM 72.9 °F 67.3 °F 83% 30.06 in 10.0 mi NNW 9.2 mph - N/A   Clear
12:55 PM 73.4 °F 67.1 °F 81% 30.04 in 10.0 mi NNW 10.4 mph - N/A   Clear
1:15 PM 73.6 °F 67.5 °F 81% 30.03 in 10.0 mi North 11.5 mph - N/A   Scattered Clouds
1:35 PM 73.9 °F 67.3 °F 80% 30.02 in 10.0 mi North 12.7 mph 20.7 mph N/A   Scattered Clouds
1:55 PM 74.1 °F 66.7 °F 78% 30.01 in 10.0 mi North 13.8 mph 18.4 mph N/A   Scattered Clouds
2:15 PM 74.1 °F 66.7 °F 78% 30.01 in 10.0 mi North 9.2 mph - N/A   Mostly Cloudy
2:35 PM 73.0 °F 67.5 °F 83% 30.00 in 10.0 mi North 10.4 mph - N/A   Mostly Cloudy
2:55 PM 72.5 °F 67.3 °F 84% 29.98 in 10.0 mi NNE 9.2 mph 18.4 mph N/A Rain Light Rain
3:15 PM 71.8 °F 67.5 °F 86% 29.99 in 10.0 mi North 17.3 mph 23.0 mph N/A   Scattered Clouds
3:35 PM 71.4 °F 67.3 °F 87% 30.00 in 10.0 mi North 10.4 mph 21.9 mph N/A Rain Light Rain
3:55 PM 70.9 °F 66.7 °F 87% 30.00 in 10.0 mi North 11.5 mph 18.4 mph N/A   Overcast
4:15 PM 70.3 °F 65.7 °F 85% 30.00 in 10.0 mi North 16.1 mph 21.9 mph N/A   Overcast
4:35 PM 69.6 °F 64.9 °F 85% 30.01 in 10.0 mi North 15.0 mph 19.6 mph N/A   Overcast
4:55 PM 68.2 °F 63.9 °F 86% 30.01 in 10.0 mi North 17.3 mph 21.9 mph N/A   Overcast
5:15 PM 67.8 °F 63.7 °F 87% 30.01 in 10.0 mi North 15.0 mph 21.9 mph N/A   Overcast
5:35 PM 68.5 °F 63.9 °F 85% 30.01 in 10.0 mi North 15.0 mph 19.6 mph N/A   Overcast
5:55 PM 68.4 °F 63.5 °F 84% 30.01 in 10.0 mi North 13.8 mph - N/A   Overcast
6:15 PM 68.2 °F 63.5 °F 85% 30.02 in 10.0 mi North 13.8 mph 19.6 mph N/A   Overcast
6:35 PM 68.0 °F 63.1 °F 84% 30.02 in 10.0 mi North 15.0 mph - N/A   Overcast
7:15 PM 67.5 °F 62.6 °F 84% 30.02 in 10.0 mi North 17.3 mph 20.7 mph N/A   Overcast
7:35 PM 67.6 °F 62.2 °F 83% 30.02 in 10.0 mi North 15.0 mph 23.0 mph N/A   Overcast
7:55 PM 67.6 °F 62.1 °F 82% 30.02 in 10.0 mi North 12.7 mph 18.4 mph N/A   Overcast
8:15 PM 67.3 °F 61.9 °F 83% 30.03 in 10.0 mi North 12.7 mph - N/A   Overcast
8:35 PM 67.3 °F 61.7 °F 82% 30.04 in 10.0 mi North 12.7 mph 19.6 mph N/A   Overcast
8:55 PM 67.1 °F 61.7 °F 83% 30.05 in 10.0 mi North 15.0 mph 21.9 mph N/A   Overcast
9:15 PM 67.1 °F 61.2 °F 81% 30.06 in 10.0 mi North 16.1 mph - N/A   Mostly Cloudy
9:35 PM 66.7 °F 60.8 °F 81% 30.07 in 10.0 mi North 16.1 mph 21.9 mph N/A   Mostly Cloudy
9:55 PM 66.9 °F 60.4 °F 80% 30.08 in 10.0 mi North 13.8 mph 18.4 mph N/A   Overcast
10:15 PM 66.7 °F 60.6 °F 81% 30.09 in 10.0 mi North 10.4 mph 17.3 mph N/A   Overcast
10:35 PM 66.7 °F 60.4 °F 80% 30.09 in 10.0 mi North 15.0 mph 23.0 mph N/A   Overcast
10:55 PM 66.7 °F 60.6 °F 81% 30.10 in 10.0 mi North 13.8 mph - N/A   Overcast
11:15 PM 66.7 °F 60.8 °F 81% 30.11 in 10.0 mi North 10.4 mph - N/A   Overcast
11:35 PM 66.7 °F 60.8 °F 81% 30.13 in 10.0 mi North 11.5 mph 20.7 mph N/A   Overcast
11:55 PM 66.6 °F 60.8 °F 82% 30.13 in 10.0 mi North 11.5 mph 23.0 mph N/A   Overcast